Rocky Hill, NJ (08553)

5:43 PM EDT on April 01, 2015 (GMT -0400)
On Main Street, | | Change Station
CLOSE
Current Station
Personal Weather Station
Location: Rocky Hill, NJ
Elevation: 125 ft
Nearby Weather Stations

Elev 125 ft 40.40 °N, 74.64 °W | Updated 49 seconds ago

Clear
Clear
54.1 °F
Feels Like 54.1 °F
N
6.0
Wind Variable Wind from NW
Gusts 14.0 mph

Today
High -- | Low -- °F
--% Chance of Precip.
Yesterday
High -- | Low -- °F
Precip. -- in
6:42 AM 7:22 PM
Waxing Gibbous, 94% visible
Pressure 30.09 in
Visibility 10.0 miles
Clouds Clear
Dew Point 29 °F
Humidity 38%
Rainfall 0.00 in
Snow Depth Not available.
UV 3 out of 12
Pollen 7.80 out of 12
Air Quality Not available.
Flu Activity Not available.
METAR KTTN 012053Z 33010KT 10SM CLR 11/M06 A3010 RMK AO2 SLP187 T01111056 55003

More Conditions Fewer Conditions

Pressure 30.09 in
Visibility 10.0 miles
Clouds Clear
Dew Point 29 °F
Humidity 38%
Rainfall 0.00 in
Snow Depth Not available.
UV 3 out of 12
Pollen 7.80 out of 12
Air Quality Not available.
Flu Activity Not available.
METAR KTTN 012053Z 33010KT 10SM CLR 11/M06 A3010 RMK AO2 SLP187 T01111056 55003

More Conditions Fewer Conditions

10-Day Weather Forecast

Almanac

Astronomy

Apr. 01, 2015 Rise Set
Actual Time
Civil Twilight
Nautical Twilight
Astronomical Twilight
Moon
Length of Visible Light
Length of Day
Tomorrow will be .
, % of the Moon is Illuminated

Today's Extremes

State Highs State Lows

Community

WunderPhotos

Upload Photos

1,810,090 photos uploaded!

WunderBlogs® & News

Nearby

Air Quality

  Air Quality AQ Index Pollutant
Not available.

Snow Depth

Station Depth Elevation

Earthquake Activity

City Distance Mag. Time & Date
Minimum magnitude displayed is 2.5.

Coastal Water Temperatures

Place Temperature

Stations

Nearby Weather Stations

Station Location Temp. Windchill Dew Point Humidity Wind Precip. Elev Updated Type